sensor_id;sensor_type;location;lat;lon;timestamp;temperature;humidity
4314;DHT22;2170;48.794;9.182;2024-03-06T00:00:28;6.90;99.90
4314;DHT22;2170;48.794;9.182;2024-03-06T00:02:55;6.90;99.90
4314;DHT22;2170;48.794;9.182;2024-03-06T00:05:23;7.00;99.90
4314;DHT22;2170;48.794;9.182;2024-03-06T00:07:49;7.00;99.90
4314;DHT22;2170;48.794;9.182;2024-03-06T00:10:16;6.90;99.90
4314;DHT22;2170;48.794;9.182;2024-03-06T00:12:43;6.90;99.90
4314;DHT22;2170;48.794;9.182;2024-03-06T00:15:10;7.00;99.90
4314;DHT22;2170;48.794;9.182;2024-03-06T00:17:36;7.00;99.90
4314;DHT22;2170;48.794;9.182;2024-03-06T00:20:04;7.10;99.90
4314;DHT22;2170;48.794;9.182;2024-03-06T00:22:33;7.10;99.90
4314;DHT22;2170;48.794;9.182;2024-03-06T00:24:59;7.00;99.90
4314;DHT22;2170;48.794;9.182;2024-03-06T00:27:26;7.20;99.90
4314;DHT22;2170;48.794;9.182;2024-03-06T00:29:53;7.00;99.90
4314;DHT22;2170;48.794;9.182;2024-03-06T00:32:20;7.00;99.90
4314;DHT22;2170;48.794;9.182;2024-03-06T00:34:48;7.00;99.90
4314;DHT22;2170;48.794;9.182;2024-03-06T00:37:15;7.00;99.90
4314;DHT22;2170;48.794;9.182;2024-03-06T00:39:43;7.00;99.90
4314;DHT22;2170;48.794;9.182;2024-03-06T00:42:10;7.00;99.90
4314;DHT22;2170;48.794;9.182;2024-03-06T00:44:39;7.00;99.90
4314;DHT22;2170;48.794;9.182;2024-03-06T00:47:05;7.00;99.90
4314;DHT22;2170;48.794;9.182;2024-03-06T00:49:32;7.30;99.90
4314;DHT22;2170;48.794;9.182;2024-03-06T00:51:59;7.00;99.90
4314;DHT22;2170;48.794;9.182;2024-03-06T00:54:25;7.00;99.90
4314;DHT22;2170;48.794;9.182;2024-03-06T00:56:53;7.00;99.90
4314;DHT22;2170;48.794;9.182;2024-03-06T00:59:20;7.00;99.90
4314;DHT22;2170;48.794;9.182;2024-03-06T01:01:47;7.00;99.90
4314;DHT22;2170;48.794;9.182;2024-03-06T01:04:13;7.00;99.90
4314;DHT22;2170;48.794;9.182;2024-03-06T01:06:40;7.00;99.90
4314;DHT22;2170;48.794;9.182;2024-03-06T01:09:07;7.00;99.90
4314;DHT22;2170;48.794;9.182;2024-03-06T01:11:33;7.00;99.90
4314;DHT22;2170;48.794;9.182;2024-03-06T01:14:01;7.00;99.90
4314;DHT22;2170;48.794;9.182;2024-03-06T01:16:29;7.00;99.90
4314;DHT22;2170;48.794;9.182;2024-03-06T01:18:56;7.00;99.90
4314;DHT22;2170;48.794;9.182;2024-03-06T01:21:22;7.00;99.90
4314;DHT22;2170;48.794;9.182;2024-03-06T01:23:49;6.90;99.90
4314;DHT22;2170;48.794;9.182;2024-03-06T01:26:16;6.90;99.90
4314;DHT22;2170;48.794;9.182;2024-03-06T01:28:43;6.90;99.90
4314;DHT22;2170;48.794;9.182;2024-03-06T01:31:11;6.90;99.90
4314;DHT22;2170;48.794;9.182;2024-03-06T01:33:38;6.90;99.90
4314;DHT22;2170;48.794;9.182;2024-03-06T01:36:05;6.90;99.90
4314;DHT22;2170;48.794;9.182;2024-03-06T01:38:31;6.90;99.90
4314;DHT22;2170;48.794;9.182;2024-03-06T01:40:58;6.90;99.90
4314;DHT22;2170;48.794;9.182;2024-03-06T01:43:25;6.90;99.90
4314;DHT22;2170;48.794;9.182;2024-03-06T01:45:52;6.90;99.90
4314;DHT22;2170;48.794;9.182;2024-03-06T01:48:24;6.90;99.90
4314;DHT22;2170;48.794;9.182;2024-03-06T01:50:52;6.90;99.90
4314;DHT22;2170;48.794;9.182;2024-03-06T01:53:19;7.00;99.90
4314;DHT22;2170;48.794;9.182;2024-03-06T01:55:48;6.90;99.90
4314;DHT22;2170;48.794;9.182;2024-03-06T01:58:15;7.00;99.90
4314;DHT22;2170;48.794;9.182;2024-03-06T02:00:41;7.00;99.90
4314;DHT22;2170;48.794;9.182;2024-03-06T02:03:08;7.00;99.90
4314;DHT22;2170;48.794;9.182;2024-03-06T02:05:36;7.00;99.90
4314;DHT22;2170;48.794;9.182;2024-03-06T02:08:04;7.00;99.90
4314;DHT22;2170;48.794;9.182;2024-03-06T02:10:32;6.90;99.90
4314;DHT22;2170;48.794;9.182;2024-03-06T02:12:59;6.90;99.90
4314;DHT22;2170;48.794;9.182;2024-03-06T02:15:26;6.90;99.90
4314;DHT22;2170;48.794;9.182;2024-03-06T02:17:53;6.80;99.90
4314;DHT22;2170;48.794;9.182;2024-03-06T02:20:23;6.80;99.90
4314;DHT22;2170;48.794;9.182;2024-03-06T02:22:50;6.80;99.90
4314;DHT22;2170;48.794;9.182;2024-03-06T02:25:17;6.70;99.90
4314;DHT22;2170;48.794;9.182;2024-03-06T02:27:44;6.70;99.90
4314;DHT22;2170;48.794;9.182;2024-03-06T02:30:14;6.70;99.90
4314;DHT22;2170;48.794;9.182;2024-03-06T02:32:41;6.80;99.90
4314;DHT22;2170;48.794;9.182;2024-03-06T02:35:09;6.70;99.90
4314;DHT22;2170;48.794;9.182;2024-03-06T02:37:37;6.70;99.90
4314;DHT22;2170;48.794;9.182;2024-03-06T02:40:05;6.70;99.90
4314;DHT22;2170;48.794;9.182;2024-03-06T02:42:35;6.70;99.90
4314;DHT22;2170;48.794;9.182;2024-03-06T02:45:03;6.70;99.90
4314;DHT22;2170;48.794;9.182;2024-03-06T02:47:30;6.70;99.90
4314;DHT22;2170;48.794;9.182;2024-03-06T02:49:56;6.70;99.90
4314;DHT22;2170;48.794;9.182;2024-03-06T02:52:23;6.60;99.90
4314;DHT22;2170;48.794;9.182;2024-03-06T02:54:51;6.50;99.90
4314;DHT22;2170;48.794;9.182;2024-03-06T02:57:18;6.60;99.90
4314;DHT22;2170;48.794;9.182;2024-03-06T02:59:44;6.60;99.90
4314;DHT22;2170;48.794;9.182;2024-03-06T03:02:11;6.70;99.90
4314;DHT22;2170;48.794;9.182;2024-03-06T03:04:38;6.70;99.90
4314;DHT22;2170;48.794;9.182;2024-03-06T03:07:05;6.70;99.90
4314;DHT22;2170;48.794;9.182;2024-03-06T03:09:32;6.60;99.90
4314;DHT22;2170;48.794;9.182;2024-03-06T03:12:00;6.50;99.90
4314;DHT22;2170;48.794;9.182;2024-03-06T03:14:26;6.50;99.90
4314;DHT22;2170;48.794;9.182;2024-03-06T03:16:53;6.50;99.90
4314;DHT22;2170;48.794;9.182;2024-03-06T03:19:20;6.60;99.90
4314;DHT22;2170;48.794;9.182;2024-03-06T03:21:46;6.60;99.90
4314;DHT22;2170;48.794;9.182;2024-03-06T03:24:13;6.60;99.90
4314;DHT22;2170;48.794;9.182;2024-03-06T03:26:40;6.50;99.90
4314;DHT22;2170;48.794;9.182;2024-03-06T03:29:08;6.50;99.90
4314;DHT22;2170;48.794;9.182;2024-03-06T03:31:35;6.50;99.90
4314;DHT22;2170;48.794;9.182;2024-03-06T03:34:04;6.60;99.90
4314;DHT22;2170;48.794;9.182;2024-03-06T03:36:30;6.60;99.90
4314;DHT22;2170;48.794;9.182;2024-03-06T03:38:58;6.60;99.90
4314;DHT22;2170;48.794;9.182;2024-03-06T03:41:25;6.60;99.90
4314;DHT22;2170;48.794;9.182;2024-03-06T03:43:52;6.60;99.90
4314;DHT22;2170;48.794;9.182;2024-03-06T03:46:20;6.60;99.90
4314;DHT22;2170;48.794;9.182;2024-03-06T03:48:46;6.60;99.90
4314;DHT22;2170;48.794;9.182;2024-03-06T03:51:13;6.60;99.90
4314;DHT22;2170;48.794;9.182;2024-03-06T03:53:40;6.60;99.90
4314;DHT22;2170;48.794;9.182;2024-03-06T03:56:06;6.60;99.90
4314;DHT22;2170;48.794;9.182;2024-03-06T03:58:33;6.60;99.90
4314;DHT22;2170;48.794;9.182;2024-03-06T04:01:00;6.60;99.90
4314;DHT22;2170;48.794;9.182;2024-03-06T04:03:28;6.50;99.90
4314;DHT22;2170;48.794;9.182;2024-03-06T04:05:54;6.60;99.90
4314;DHT22;2170;48.794;9.182;2024-03-06T04:08:21;6.60;99.90
4314;DHT22;2170;48.794;9.182;2024-03-06T04:10:49;6.60;99.90
4314;DHT22;2170;48.794;9.182;2024-03-06T04:13:15;6.60;99.90
4314;DHT22;2170;48.794;9.182;2024-03-06T04:15:45;6.60;99.90
4314;DHT22;2170;48.794;9.182;2024-03-06T04:18:12;6.60;99.90
4314;DHT22;2170;48.794;9.182;2024-03-06T04:20:40;6.60;99.90
4314;DHT22;2170;48.794;9.182;2024-03-06T04:23:06;6.60;99.90
4314;DHT22;2170;48.794;9.182;2024-03-06T04:25:33;6.60;99.90
4314;DHT22;2170;48.794;9.182;2024-03-06T04:28:00;6.70;99.90
4314;DHT22;2170;48.794;9.182;2024-03-06T04:30:27;6.60;99.90
4314;DHT22;2170;48.794;9.182;2024-03-06T04:32:54;6.60;99.90
4314;DHT22;2170;48.794;9.182;2024-03-06T04:35:21;6.70;99.90
4314;DHT22;2170;48.794;9.182;2024-03-06T04:37:49;6.60;99.90
4314;DHT22;2170;48.794;9.182;2024-03-06T04:40:16;6.60;99.90
4314;DHT22;2170;48.794;9.182;2024-03-06T04:42:45;6.60;99.90
4314;DHT22;2170;48.794;9.182;2024-03-06T04:45:15;6.70;99.90
4314;DHT22;2170;48.794;9.182;2024-03-06T04:47:42;6.70;99.90
4314;DHT22;2170;48.794;9.182;2024-03-06T04:50:09;6.70;99.90
4314;DHT22;2170;48.794;9.182;2024-03-06T04:52:36;6.60;99.90
4314;DHT22;2170;48.794;9.182;2024-03-06T04:55:05;6.60;99.90
4314;DHT22;2170;48.794;9.182;2024-03-06T04:57:32;6.60;99.90
4314;DHT22;2170;48.794;9.182;2024-03-06T04:59:59;6.60;99.90
4314;DHT22;2170;48.794;9.182;2024-03-06T05:02:28;6.60;99.90
4314;DHT22;2170;48.794;9.182;2024-03-06T05:04:54;6.60;99.90
4314;DHT22;2170;48.794;9.182;2024-03-06T05:07:21;6.50;99.90
4314;DHT22;2170;48.794;9.182;2024-03-06T05:09:48;6.60;99.90
4314;DHT22;2170;48.794;9.182;2024-03-06T05:12:16;6.50;99.90
4314;DHT22;2170;48.794;9.182;2024-03-06T05:14:42;6.50;99.90
4314;DHT22;2170;48.794;9.182;2024-03-06T05:17:09;6.70;99.90
4314;DHT22;2170;48.794;9.182;2024-03-06T05:19:36;6.50;99.90
4314;DHT22;2170;48.794;9.182;2024-03-06T05:22:03;6.50;99.90
4314;DHT22;2170;48.794;9.182;2024-03-06T05:24:31;6.60;99.90
4314;DHT22;2170;48.794;9.182;2024-03-06T05:26:57;6.60;99.90
4314;DHT22;2170;48.794;9.182;2024-03-06T05:29:25;6.50;99.90
4314;DHT22;2170;48.794;9.182;2024-03-06T05:31:52;6.50;99.90
4314;DHT22;2170;48.794;9.182;2024-03-06T05:34:20;6.60;99.90
4314;DHT22;2170;48.794;9.182;2024-03-06T05:36:47;6.50;99.90
4314;DHT22;2170;48.794;9.182;2024-03-06T05:39:14;6.50;99.90
4314;DHT22;2170;48.794;9.182;2024-03-06T05:41:41;6.50;99.90
4314;DHT22;2170;48.794;9.182;2024-03-06T05:44:08;6.50;99.90
4314;DHT22;2170;48.794;9.182;2024-03-06T05:46:35;6.50;99.90
4314;DHT22;2170;48.794;9.182;2024-03-06T05:49:02;6.50;99.90
4314;DHT22;2170;48.794;9.182;2024-03-06T05:51:30;6.50;99.90
4314;DHT22;2170;48.794;9.182;2024-03-06T05:53:56;6.40;99.90
4314;DHT22;2170;48.794;9.182;2024-03-06T05:56:23;6.50;99.90
4314;DHT22;2170;48.794;9.182;2024-03-06T05:58:50;6.40;99.90
4314;DHT22;2170;48.794;9.182;2024-03-06T06:01:17;6.40;99.90
4314;DHT22;2170;48.794;9.182;2024-03-06T06:03:47;6.40;99.90
4314;DHT22;2170;48.794;9.182;2024-03-06T06:06:14;6.40;99.90
4314;DHT22;2170;48.794;9.182;2024-03-06T06:08:41;6.40;99.90
4314;DHT22;2170;48.794;9.182;2024-03-06T06:11:09;6.40;99.90
4314;DHT22;2170;48.794;9.182;2024-03-06T06:13:36;6.40;99.90
4314;DHT22;2170;48.794;9.182;2024-03-06T06:16:03;6.50;99.90
4314;DHT22;2170;48.794;9.182;2024-03-06T06:18:30;6.40;99.90
4314;DHT22;2170;48.794;9.182;2024-03-06T06:20:59;6.40;99.90
4314;DHT22;2170;48.794;9.182;2024-03-06T06:23:25;6.50;99.90
4314;DHT22;2170;48.794;9.182;2024-03-06T06:25:52;6.50;99.90
4314;DHT22;2170;48.794;9.182;2024-03-06T06:28:19;6.70;99.90
4314;DHT22;2170;48.794;9.182;2024-03-06T06:30:46;6.60;99.90
4314;DHT22;2170;48.794;9.182;2024-03-06T06:33:12;6.70;99.90
4314;DHT22;2170;48.794;9.182;2024-03-06T06:35:39;6.60;99.90
4314;DHT22;2170;48.794;9.182;2024-03-06T06:38:07;6.60;99.90
4314;DHT22;2170;48.794;9.182;2024-03-06T06:40:34;6.60;99.90
4314;DHT22;2170;48.794;9.182;2024-03-06T06:43:01;6.50;99.90
4314;DHT22;2170;48.794;9.182;2024-03-06T06:45:28;6.40;99.90
4314;DHT22;2170;48.794;9.182;2024-03-06T06:47:55;6.50;99.90
4314;DHT22;2170;48.794;9.182;2024-03-06T06:50:21;6.40;99.90
4314;DHT22;2170;48.794;9.182;2024-03-06T06:52:51;6.50;99.90
4314;DHT22;2170;48.794;9.182;2024-03-06T06:55:19;6.50;99.90
4314;DHT22;2170;48.794;9.182;2024-03-06T06:57:48;6.50;99.90
4314;DHT22;2170;48.794;9.182;2024-03-06T07:00:15;6.50;99.90
4314;DHT22;2170;48.794;9.182;2024-03-06T07:02:44;6.50;99.90
4314;DHT22;2170;48.794;9.182;2024-03-06T07:05:11;6.50;99.90
4314;DHT22;2170;48.794;9.182;2024-03-06T07:07:39;6.50;99.90
4314;DHT22;2170;48.794;9.182;2024-03-06T07:10:06;6.50;99.90
4314;DHT22;2170;48.794;9.182;2024-03-06T07:12:35;6.50;99.90
4314;DHT22;2170;48.794;9.182;2024-03-06T07:15:02;6.40;99.90
4314;DHT22;2170;48.794;9.182;2024-03-06T07:17:29;6.40;99.90
4314;DHT22;2170;48.794;9.182;2024-03-06T07:19:55;6.40;99.90
4314;DHT22;2170;48.794;9.182;2024-03-06T07:22:22;6.40;99.90
4314;DHT22;2170;48.794;9.182;2024-03-06T07:24:49;6.40;99.90
4314;DHT22;2170;48.794;9.182;2024-03-06T07:27:15;6.40;99.90
4314;DHT22;2170;48.794;9.182;2024-03-06T07:29:45;6.30;99.90
4314;DHT22;2170;48.794;9.182;2024-03-06T07:32:12;6.30;99.90
4314;DHT22;2170;48.794;9.182;2024-03-06T07:34:38;6.30;99.90
4314;DHT22;2170;48.794;9.182;2024-03-06T07:37:05;6.40;99.90
4314;DHT22;2170;48.794;9.182;2024-03-06T07:39:32;6.40;99.90
4314;DHT22;2170;48.794;9.182;2024-03-06T07:42:00;6.30;99.90
4314;DHT22;2170;48.794;9.182;2024-03-06T07:44:27;6.30;99.90
4314;DHT22;2170;48.794;9.182;2024-03-06T07:46:55;6.40;99.90
4314;DHT22;2170;48.794;9.182;2024-03-06T07:49:22;6.50;99.90
4314;DHT22;2170;48.794;9.182;2024-03-06T07:51:49;6.50;99.90
4314;DHT22;2170;48.794;9.182;2024-03-06T07:54:16;6.50;99.90
4314;DHT22;2170;48.794;9.182;2024-03-06T07:56:43;6.50;99.90
4314;DHT22;2170;48.794;9.182;2024-03-06T07:59:09;6.50;99.90
4314;DHT22;2170;48.794;9.182;2024-03-06T08:01:37;6.50;99.90
4314;DHT22;2170;48.794;9.182;2024-03-06T08:04:05;6.60;99.90
4314;DHT22;2170;48.794;9.182;2024-03-06T08:06:32;6.60;99.90
4314;DHT22;2170;48.794;9.182;2024-03-06T08:08:59;6.50;99.90
4314;DHT22;2170;48.794;9.182;2024-03-06T08:11:27;6.60;99.90
4314;DHT22;2170;48.794;9.182;2024-03-06T08:13:57;6.60;99.90
4314;DHT22;2170;48.794;9.182;2024-03-06T08:16:24;6.50;99.90
4314;DHT22;2170;48.794;9.182;2024-03-06T08:18:51;6.50;99.90
4314;DHT22;2170;48.794;9.182;2024-03-06T08:21:19;6.50;99.90
4314;DHT22;2170;48.794;9.182;2024-03-06T08:23:46;6.50;99.90
4314;DHT22;2170;48.794;9.182;2024-03-06T08:26:12;6.50;99.90
4314;DHT22;2170;48.794;9.182;2024-03-06T08:28:39;6.50;99.90
4314;DHT22;2170;48.794;9.182;2024-03-06T08:31:06;6.50;99.90
4314;DHT22;2170;48.794;9.182;2024-03-06T08:33:33;6.60;99.90
4314;DHT22;2170;48.794;9.182;2024-03-06T08:36:00;6.60;99.90
4314;DHT22;2170;48.794;9.182;2024-03-06T08:38:29;6.60;99.90
4314;DHT22;2170;48.794;9.182;2024-03-06T08:40:55;6.60;99.90
4314;DHT22;2170;48.794;9.182;2024-03-06T08:43:22;6.70;99.90
4314;DHT22;2170;48.794;9.182;2024-03-06T08:45:49;6.80;99.90
4314;DHT22;2170;48.794;9.182;2024-03-06T08:48:15;6.70;99.90
4314;DHT22;2170;48.794;9.182;2024-03-06T08:50:42;6.80;99.90
4314;DHT22;2170;48.794;9.182;2024-03-06T08:53:09;6.80;99.90
4314;DHT22;2170;48.794;9.182;2024-03-06T08:55:37;6.80;99.90
4314;DHT22;2170;48.794;9.182;2024-03-06T08:58:04;6.80;99.90
4314;DHT22;2170;48.794;9.182;2024-03-06T09:00:31;6.80;99.90
4314;DHT22;2170;48.794;9.182;2024-03-06T09:02:57;6.80;99.90
4314;DHT22;2170;48.794;9.182;2024-03-06T09:05:24;6.80;99.90
4314;DHT22;2170;48.794;9.182;2024-03-06T09:07:51;6.80;99.90
4314;DHT22;2170;48.794;9.182;2024-03-06T09:10:18;6.80;99.90
4314;DHT22;2170;48.794;9.182;2024-03-06T09:12:46;6.70;99.90
4314;DHT22;2170;48.794;9.182;2024-03-06T09:15:14;6.80;99.90
4314;DHT22;2170;48.794;9.182;2024-03-06T09:17:41;6.90;99.90
4314;DHT22;2170;48.794;9.182;2024-03-06T09:20:10;6.80;99.90
4314;DHT22;2170;48.794;9.182;2024-03-06T09:22:37;6.70;99.90
4314;DHT22;2170;48.794;9.182;2024-03-06T09:25:05;6.70;99.90
4314;DHT22;2170;48.794;9.182;2024-03-06T09:27:32;6.70;99.90
4314;DHT22;2170;48.794;9.182;2024-03-06T09:30:00;6.80;99.90
4314;DHT22;2170;48.794;9.182;2024-03-06T09:32:28;6.80;99.90
4314;DHT22;2170;48.794;9.182;2024-03-06T09:34:55;6.80;99.90
4314;DHT22;2170;48.794;9.182;2024-03-06T09:37:22;6.80;99.90
4314;DHT22;2170;48.794;9.182;2024-03-06T09:39:49;6.80;99.90
4314;DHT22;2170;48.794;9.182;2024-03-06T09:42:16;6.80;99.90
4314;DHT22;2170;48.794;9.182;2024-03-06T09:44:44;6.80;99.90
4314;DHT22;2170;48.794;9.182;2024-03-06T09:47:14;6.90;99.90
4314;DHT22;2170;48.794;9.182;2024-03-06T09:49:41;7.00;99.90
4314;DHT22;2170;48.794;9.182;2024-03-06T09:52:08;6.90;99.90
4314;DHT22;2170;48.794;9.182;2024-03-06T09:54:35;6.90;99.90
4314;DHT22;2170;48.794;9.182;2024-03-06T09:57:04;6.90;99.90
4314;DHT22;2170;48.794;9.182;2024-03-06T09:59:31;7.00;99.90
4314;DHT22;2170;48.794;9.182;2024-03-06T10:01:58;7.00;99.90
4314;DHT22;2170;48.794;9.182;2024-03-06T10:04:32;7.00;99.90
4314;DHT22;2170;48.794;9.182;2024-03-06T10:07:00;6.90;99.90
4314;DHT22;2170;48.794;9.182;2024-03-06T10:09:27;6.90;99.90
4314;DHT22;2170;48.794;9.182;2024-03-06T10:11:56;7.00;99.90
4314;DHT22;2170;48.794;9.182;2024-03-06T10:14:23;7.00;99.90
4314;DHT22;2170;48.794;9.182;2024-03-06T10:16:53;6.90;99.90
4314;DHT22;2170;48.794;9.182;2024-03-06T10:19:23;6.90;99.90
4314;DHT22;2170;48.794;9.182;2024-03-06T10:21:51;6.90;99.90
4314;DHT22;2170;48.794;9.182;2024-03-06T10:24:21;6.80;99.90
4314;DHT22;2170;48.794;9.182;2024-03-06T10:26:49;6.80;99.90
4314;DHT22;2170;48.794;9.182;2024-03-06T10:29:17;6.80;99.90
4314;DHT22;2170;48.794;9.182;2024-03-06T10:31:48;7.00;99.90
4314;DHT22;2170;48.794;9.182;2024-03-06T10:34:16;7.00;99.90
4314;DHT22;2170;48.794;9.182;2024-03-06T10:36:43;7.10;99.90
4314;DHT22;2170;48.794;9.182;2024-03-06T10:39:12;7.10;99.90
4314;DHT22;2170;48.794;9.182;2024-03-06T10:41:40;7.20;99.90
4314;DHT22;2170;48.794;9.182;2024-03-06T10:44:11;7.30;99.90
4314;DHT22;2170;48.794;9.182;2024-03-06T10:46:40;7.40;99.90
4314;DHT22;2170;48.794;9.182;2024-03-06T10:49:09;7.30;99.90
4314;DHT22;2170;48.794;9.182;2024-03-06T10:51:38;7.40;99.90
4314;DHT22;2170;48.794;9.182;2024-03-06T10:54:08;7.40;99.90
4314;DHT22;2170;48.794;9.182;2024-03-06T10:56:38;7.50;99.90
4314;DHT22;2170;48.794;9.182;2024-03-06T10:59:09;7.40;99.90
4314;DHT22;2170;48.794;9.182;2024-03-06T11:01:37;7.20;99.90
4314;DHT22;2170;48.794;9.182;2024-03-06T11:04:05;7.20;99.90
4314;DHT22;2170;48.794;9.182;2024-03-06T11:06:32;7.30;99.90
4314;DHT22;2170;48.794;9.182;2024-03-06T11:09:00;7.20;99.90
4314;DHT22;2170;48.794;9.182;2024-03-06T11:11:27;7.20;99.90
4314;DHT22;2170;48.794;9.182;2024-03-06T11:14:04;7.20;99.90
4314;DHT22;2170;48.794;9.182;2024-03-06T11:17:00;7.30;99.90
4314;DHT22;2170;48.794;9.182;2024-03-06T11:19:28;7.30;99.90
4314;DHT22;2170;48.794;9.182;2024-03-06T11:21:55;7.20;99.90
4314;DHT22;2170;48.794;9.182;2024-03-06T11:24:23;7.20;99.90
4314;DHT22;2170;48.794;9.182;2024-03-06T11:26:54;7.30;99.90
4314;DHT22;2170;48.794;9.182;2024-03-06T11:29:26;7.20;99.90
4314;DHT22;2170;48.794;9.182;2024-03-06T11:32:01;7.40;99.90
4314;DHT22;2170;48.794;9.182;2024-03-06T11:34:28;7.40;99.90
4314;DHT22;2170;48.794;9.182;2024-03-06T11:36:57;7.40;99.90
4314;DHT22;2170;48.794;9.182;2024-03-06T11:39:23;7.40;99.90
4314;DHT22;2170;48.794;9.182;2024-03-06T11:41:50;7.20;99.90
4314;DHT22;2170;48.794;9.182;2024-03-06T11:44:18;7.20;99.90
4314;DHT22;2170;48.794;9.182;2024-03-06T11:46:48;7.30;99.90
4314;DHT22;2170;48.794;9.182;2024-03-06T11:49:16;7.30;99.90
4314;DHT22;2170;48.794;9.182;2024-03-06T11:51:46;7.30;99.90
4314;DHT22;2170;48.794;9.182;2024-03-06T11:54:14;7.20;99.90
4314;DHT22;2170;48.794;9.182;2024-03-06T11:56:42;7.20;99.90
4314;DHT22;2170;48.794;9.182;2024-03-06T11:59:10;7.10;99.90
4314;DHT22;2170;48.794;9.182;2024-03-06T12:01:37;7.20;99.90
4314;DHT22;2170;48.794;9.182;2024-03-06T12:04:06;7.10;99.90
4314;DHT22;2170;48.794;9.182;2024-03-06T12:06:33;7.10;99.90
4314;DHT22;2170;48.794;9.182;2024-03-06T12:09:00;7.20;99.90
4314;DHT22;2170;48.794;9.182;2024-03-06T12:11:27;7.20;99.90
4314;DHT22;2170;48.794;9.182;2024-03-06T12:13:55;7.20;99.90
4314;DHT22;2170;48.794;9.182;2024-03-06T12:16:22;7.30;99.90
4314;DHT22;2170;48.794;9.182;2024-03-06T12:18:54;7.30;99.90
4314;DHT22;2170;48.794;9.182;2024-03-06T12:21:27;7.40;99.90
4314;DHT22;2170;48.794;9.182;2024-03-06T12:24:02;7.40;99.90
4314;DHT22;2170;48.794;9.182;2024-03-06T12:26:29;7.40;99.90
4314;DHT22;2170;48.794;9.182;2024-03-06T12:29:04;7.40;99.90
4314;DHT22;2170;48.794;9.182;2024-03-06T12:31:31;7.30;99.90
4314;DHT22;2170;48.794;9.182;2024-03-06T12:33:59;7.30;99.90
4314;DHT22;2170;48.794;9.182;2024-03-06T12:36:29;7.30;99.90
4314;DHT22;2170;48.794;9.182;2024-03-06T12:38:58;7.30;99.90
4314;DHT22;2170;48.794;9.182;2024-03-06T12:41:25;7.30;99.90
4314;DHT22;2170;48.794;9.182;2024-03-06T12:43:53;7.30;99.90
4314;DHT22;2170;48.794;9.182;2024-03-06T12:46:20;7.30;99.90
4314;DHT22;2170;48.794;9.182;2024-03-06T12:48:47;7.30;99.90
4314;DHT22;2170;48.794;9.182;2024-03-06T12:51:13;7.30;99.90
4314;DHT22;2170;48.794;9.182;2024-03-06T12:53:41;7.30;99.90
4314;DHT22;2170;48.794;9.182;2024-03-06T12:56:08;7.40;99.90
4314;DHT22;2170;48.794;9.182;2024-03-06T12:58:35;7.40;99.90
4314;DHT22;2170;48.794;9.182;2024-03-06T13:01:02;7.30;99.90
4314;DHT22;2170;48.794;9.182;2024-03-06T13:03:29;7.40;99.90
4314;DHT22;2170;48.794;9.182;2024-03-06T13:05:56;7.40;99.90
4314;DHT22;2170;48.794;9.182;2024-03-06T13:08:23;7.40;99.90
4314;DHT22;2170;48.794;9.182;2024-03-06T13:10:51;7.40;99.90
4314;DHT22;2170;48.794;9.182;2024-03-06T13:13:17;7.50;99.90
4314;DHT22;2170;48.794;9.182;2024-03-06T13:15:44;7.40;99.90
4314;DHT22;2170;48.794;9.182;2024-03-06T13:18:13;7.40;99.90
4314;DHT22;2170;48.794;9.182;2024-03-06T13:20:41;7.70;99.90
4314;DHT22;2170;48.794;9.182;2024-03-06T13:23:08;7.40;99.90
4314;DHT22;2170;48.794;9.182;2024-03-06T13:25:34;7.50;99.90
4314;DHT22;2170;48.794;9.182;2024-03-06T13:28:03;7.40;99.90
4314;DHT22;2170;48.794;9.182;2024-03-06T13:30:30;7.50;99.90
4314;DHT22;2170;48.794;9.182;2024-03-06T13:32:57;7.40;99.90
4314;DHT22;2170;48.794;9.182;2024-03-06T13:35:24;7.40;99.90
4314;DHT22;2170;48.794;9.182;2024-03-06T13:37:51;7.40;99.90
4314;DHT22;2170;48.794;9.182;2024-03-06T13:40:19;7.40;99.90
4314;DHT22;2170;48.794;9.182;2024-03-06T13:42:46;7.50;99.90
4314;DHT22;2170;48.794;9.182;2024-03-06T13:45:14;7.50;99.90
4314;DHT22;2170;48.794;9.182;2024-03-06T13:47:42;7.50;99.90
4314;DHT22;2170;48.794;9.182;2024-03-06T13:50:10;7.50;99.90
4314;DHT22;2170;48.794;9.182;2024-03-06T13:52:37;7.50;99.90
4314;DHT22;2170;48.794;9.182;2024-03-06T13:55:04;7.50;99.90
4314;DHT22;2170;48.794;9.182;2024-03-06T13:57:31;7.40;99.90
4314;DHT22;2170;48.794;9.182;2024-03-06T14:00:00;7.50;99.90
4314;DHT22;2170;48.794;9.182;2024-03-06T14:02:28;7.40;99.90
4314;DHT22;2170;48.794;9.182;2024-03-06T14:04:54;7.50;99.90
4314;DHT22;2170;48.794;9.182;2024-03-06T14:07:21;7.50;99.90
4314;DHT22;2170;48.794;9.182;2024-03-06T14:09:49;7.50;99.90
4314;DHT22;2170;48.794;9.182;2024-03-06T14:12:15;7.50;99.90
4314;DHT22;2170;48.794;9.182;2024-03-06T14:14:42;7.50;99.90
4314;DHT22;2170;48.794;9.182;2024-03-06T14:17:10;7.60;99.90
4314;DHT22;2170;48.794;9.182;2024-03-06T14:19:39;7.60;99.90
4314;DHT22;2170;48.794;9.182;2024-03-06T14:22:06;7.60;99.90
4314;DHT22;2170;48.794;9.182;2024-03-06T14:24:32;7.60;99.90
4314;DHT22;2170;48.794;9.182;2024-03-06T14:26:59;7.60;99.90
4314;DHT22;2170;48.794;9.182;2024-03-06T14:29:26;7.70;99.90
4314;DHT22;2170;48.794;9.182;2024-03-06T14:31:53;7.70;99.90
4314;DHT22;2170;48.794;9.182;2024-03-06T14:34:20;7.60;99.90
4314;DHT22;2170;48.794;9.182;2024-03-06T14:36:50;7.60;99.90
4314;DHT22;2170;48.794;9.182;2024-03-06T14:39:17;7.60;99.90
4314;DHT22;2170;48.794;9.182;2024-03-06T14:41:44;7.50;99.90
4314;DHT22;2170;48.794;9.182;2024-03-06T14:44:12;7.50;99.90
4314;DHT22;2170;48.794;9.182;2024-03-06T14:46:40;7.50;99.90
4314;DHT22;2170;48.794;9.182;2024-03-06T14:49:07;7.50;99.90
4314;DHT22;2170;48.794;9.182;2024-03-06T14:51:34;7.50;99.90
4314;DHT22;2170;48.794;9.182;2024-03-06T14:54:02;7.50;99.90
4314;DHT22;2170;48.794;9.182;2024-03-06T14:56:29;7.40;99.90
4314;DHT22;2170;48.794;9.182;2024-03-06T14:58:56;7.50;99.90
4314;DHT22;2170;48.794;9.182;2024-03-06T15:01:23;7.50;99.90
4314;DHT22;2170;48.794;9.182;2024-03-06T15:03:50;7.50;99.90
4314;DHT22;2170;48.794;9.182;2024-03-06T15:06:17;7.60;99.90
4314;DHT22;2170;48.794;9.182;2024-03-06T15:08:44;7.60;99.90
4314;DHT22;2170;48.794;9.182;2024-03-06T15:11:12;7.60;99.90
4314;DHT22;2170;48.794;9.182;2024-03-06T15:13:39;7.70;99.90
4314;DHT22;2170;48.794;9.182;2024-03-06T15:16:06;7.60;99.90
4314;DHT22;2170;48.794;9.182;2024-03-06T15:18:34;7.60;99.90
4314;DHT22;2170;48.794;9.182;2024-03-06T15:21:01;7.60;99.90
4314;DHT22;2170;48.794;9.182;2024-03-06T15:23:28;7.60;99.90
4314;DHT22;2170;48.794;9.182;2024-03-06T15:25:56;7.60;99.90
4314;DHT22;2170;48.794;9.182;2024-03-06T15:28:24;7.60;99.90
4314;DHT22;2170;48.794;9.182;2024-03-06T15:30:51;7.60;99.90
4314;DHT22;2170;48.794;9.182;2024-03-06T15:33:18;7.60;99.90
4314;DHT22;2170;48.794;9.182;2024-03-06T15:35:45;7.60;99.90
4314;DHT22;2170;48.794;9.182;2024-03-06T15:38:12;7.60;99.90
4314;DHT22;2170;48.794;9.182;2024-03-06T15:40:38;7.60;99.90
4314;DHT22;2170;48.794;9.182;2024-03-06T15:43:05;7.60;99.90
4314;DHT22;2170;48.794;9.182;2024-03-06T15:45:33;7.60;99.90
4314;DHT22;2170;48.794;9.182;2024-03-06T15:48:00;7.60;99.90
4314;DHT22;2170;48.794;9.182;2024-03-06T15:50:26;7.60;99.90
4314;DHT22;2170;48.794;9.182;2024-03-06T15:52:53;7.60;99.90
4314;DHT22;2170;48.794;9.182;2024-03-06T15:55:20;7.60;99.90
4314;DHT22;2170;48.794;9.182;2024-03-06T15:57:46;7.60;99.90
4314;DHT22;2170;48.794;9.182;2024-03-06T16:00:14;7.60;99.90
4314;DHT22;2170;48.794;9.182;2024-03-06T16:02:43;7.60;99.90
4314;DHT22;2170;48.794;9.182;2024-03-06T16:05:10;7.60;99.90
4314;DHT22;2170;48.794;9.182;2024-03-06T16:07:37;7.60;99.90
4314;DHT22;2170;48.794;9.182;2024-03-06T16:10:05;7.60;99.90
4314;DHT22;2170;48.794;9.182;2024-03-06T16:12:32;7.60;99.90
4314;DHT22;2170;48.794;9.182;2024-03-06T16:14:59;7.60;99.90
4314;DHT22;2170;48.794;9.182;2024-03-06T16:17:25;7.60;99.90